createdAt,value
2019-06-26T00:02:38.774Z,21.60
2019-06-26T00:05:42.537Z,21.70
2019-06-26T00:08:46.403Z,22.00
2019-06-26T00:11:50.129Z,22.30
2019-06-26T00:14:53.946Z,22.60
2019-06-26T00:17:57.675Z,22.70
2019-06-26T00:21:01.370Z,23.00
2019-06-26T00:24:05.226Z,23.00
2019-06-26T00:27:09.069Z,22.90
2019-06-26T00:30:13.414Z,23.00
2019-06-26T00:33:17.113Z,22.90
2019-06-26T00:36:20.829Z,22.80
2019-06-26T00:39:24.585Z,23.20
2019-06-26T00:42:28.462Z,23.50
2019-06-26T00:45:32.122Z,23.70
2019-06-26T00:48:35.854Z,23.60
2019-06-26T00:51:39.662Z,23.60
2019-06-26T00:54:43.402Z,23.50
2019-06-26T00:57:47.169Z,23.50
2019-06-26T01:00:52.150Z,23.50
2019-06-26T01:03:58.601Z,24.00
2019-06-26T01:07:02.248Z,24.50
2019-06-26T01:10:06.401Z,24.60
2019-06-26T01:13:10.386Z,24.80
2019-06-26T01:16:14.197Z,25.00
2019-06-26T01:19:17.953Z,25.10
2019-06-26T01:22:21.669Z,25.60
2019-06-26T01:25:25.441Z,25.30
2019-06-26T01:28:29.308Z,25.80
2019-06-26T01:31:32.977Z,26.00
2019-06-26T01:34:36.717Z,26.30
2019-06-26T01:37:40.482Z,26.80
2019-06-26T01:40:44.992Z,26.80
2019-06-26T01:43:48.749Z,27.30
2019-06-26T01:46:52.718Z,27.30
2019-06-26T01:49:56.522Z,27.30
2019-06-26T01:53:00.296Z,27.30
2019-06-26T01:56:04.261Z,27.40
2019-06-26T01:59:08.052Z,27.80
2019-06-26T02:02:11.913Z,27.80
2019-06-26T02:05:15.707Z,27.90
2019-06-26T02:08:19.478Z,28.00
2019-06-26T02:11:23.257Z,28.10
2019-06-26T02:14:31.439Z,28.10
2019-06-26T02:17:32.454Z,28.30
2019-06-26T02:20:36.229Z,28.20
2019-06-26T02:23:39.901Z,28.50
2019-06-26T02:26:43.758Z,28.70
2019-06-26T02:29:47.413Z,29.10
2019-06-26T02:32:51.194Z,29.40
2019-06-26T02:35:54.964Z,29.40
2019-06-26T02:38:58.693Z,29.40
2019-06-26T02:42:02.491Z,29.50
2019-06-26T02:45:07.810Z,29.50
2019-06-26T02:48:11.580Z,29.60
2019-06-26T02:51:15.523Z,29.80
2019-06-26T02:54:19.269Z,30.00
2019-06-26T02:57:22.981Z,30.00
2019-06-26T03:00:27.713Z,30.30
2019-06-26T03:03:31.567Z,31.00
2019-06-26T03:06:35.337Z,30.50
2019-06-26T03:09:39.373Z,30.70
2019-06-26T03:12:43.229Z,30.80
2019-06-26T03:15:50.368Z,31.00
2019-06-26T03:18:52.468Z,31.00
2019-06-26T03:21:56.193Z,31.00
2019-06-26T03:24:59.920Z,31.80
2019-06-26T03:28:03.695Z,31.90
2019-06-26T03:31:07.418Z,32.00
2019-06-26T03:34:11.218Z,32.00
2019-06-26T03:37:14.931Z,32.40
2019-06-26T03:40:18.857Z,32.80
2019-06-26T03:43:23.546Z,33.80
2019-06-26T03:46:27.247Z,33.40
2019-06-26T03:49:30.930Z,33.60
2019-06-26T03:52:35.041Z,33.30
2019-06-26T03:55:39.119Z,33.10
2019-06-26T03:58:42.812Z,33.50
2019-06-26T04:01:46.750Z,33.20
2019-06-26T04:04:50.524Z,33.50
2019-06-26T04:07:54.277Z,34.90
2019-06-26T04:10:58.009Z,34.30
2019-06-26T04:14:01.772Z,33.80
2019-06-26T04:17:05.598Z,33.80
2019-06-26T04:20:09.399Z,33.50
2019-06-26T04:23:13.100Z,33.30
2019-06-26T04:26:16.843Z,33.20
2019-06-26T04:29:20.563Z,33.20
2019-06-26T04:32:24.700Z,33.10
2019-06-26T04:35:28.541Z,33.10
2019-06-26T04:38:32.240Z,33.70
2019-06-26T04:41:35.959Z,35.50
2019-06-26T04:44:39.729Z,35.10
2019-06-26T04:47:43.429Z,35.70
2019-06-26T04:50:47.453Z,34.70
2019-06-26T04:53:51.150Z,35.50
2019-06-26T04:56:54.967Z,34.20
2019-06-26T04:59:58.744Z,34.40
2019-06-26T05:03:02.449Z,33.50
2019-06-26T05:06:06.285Z,32.80
2019-06-26T05:09:10.104Z,32.00
2019-06-26T05:12:13.852Z,31.30
2019-06-26T05:15:19.217Z,30.00
2019-06-26T05:18:23.020Z,29.70
2019-06-26T05:21:26.770Z,29.10
2019-06-26T05:24:33.570Z,28.70
2019-06-26T05:27:37.740Z,28.20
2019-06-26T05:30:41.494Z,28.00
2019-06-26T05:33:45.229Z,26.20
2019-06-26T05:36:48.931Z,26.50
2019-06-26T05:39:54.818Z,26.10
2019-06-26T05:42:58.164Z,24.50
2019-06-26T05:46:01.877Z,24.40
2019-06-26T05:49:05.640Z,23.20
2019-06-26T05:52:09.972Z,22.90
2019-06-26T05:55:14.661Z,23.20
2019-06-26T05:58:18.390Z,22.80
2019-06-26T06:01:22.204Z,22.40
2019-06-26T06:04:26.004Z,21.60
2019-06-26T06:07:29.997Z,21.80
2019-06-26T06:10:34.667Z,21.40
2019-06-26T06:13:38.510Z,20.80
2019-06-26T06:16:47.458Z,20.70
2019-06-26T06:19:47.701Z,19.70
2019-06-26T06:22:51.627Z,19.40
2019-06-26T06:25:55.303Z,19.50
2019-06-26T06:28:59.329Z,18.80
2019-06-26T06:32:03.159Z,18.90
2019-06-26T06:35:08.481Z,18.80
2019-06-26T06:38:12.720Z,18.60
2019-06-26T06:41:16.437Z,17.60
2019-06-26T06:44:20.147Z,17.70
2019-06-26T06:47:24.192Z,17.40
2019-06-26T06:50:27.871Z,16.80
2019-06-26T06:53:31.783Z,16.50
2019-06-26T06:56:35.499Z,16.20
2019-06-26T06:59:39.261Z,16.20
2019-06-26T07:02:43.097Z,15.00
2019-06-26T07:05:47.409Z,15.50
2019-06-26T07:08:51.300Z,15.30
2019-06-26T07:11:55.195Z,15.70
2019-06-26T07:14:59.058Z,15.60
2019-06-26T07:18:02.862Z,16.50
2019-06-26T07:21:06.585Z,16.20
2019-06-26T07:24:10.343Z,14.20
2019-06-26T07:27:14.265Z,13.80
2019-06-26T07:30:18.210Z,15.00
2019-06-26T07:33:21.948Z,15.30
2019-06-26T07:36:25.728Z,14.30
2019-06-26T07:39:29.457Z,14.90
2019-06-26T07:42:33.188Z,14.80
2019-06-26T07:45:36.957Z,13.30
2019-06-26T07:48:40.688Z,14.00
2019-06-26T07:51:44.507Z,13.50
2019-06-26T07:54:48.255Z,13.50
2019-06-26T07:57:51.965Z,13.60
2019-06-26T08:00:55.737Z,13.70
2019-06-26T08:03:59.464Z,13.50
2019-06-26T08:07:03.214Z,13.90
2019-06-26T08:10:07.406Z,14.40
2019-06-26T08:13:11.093Z,13.40
2019-06-26T08:16:14.950Z,13.70
2019-06-26T08:19:19.396Z,13.40
2019-06-26T08:22:23.260Z,13.90
2019-06-26T08:25:26.966Z,13.60
2019-06-26T08:28:30.772Z,14.30
2019-06-26T08:31:34.529Z,12.80
2019-06-26T08:34:38.285Z,13.60
2019-06-26T08:37:42.127Z,13.00
2019-06-26T08:40:46.206Z,14.60
2019-06-26T08:43:49.973Z,13.30
2019-06-26T08:46:53.719Z,12.50
2019-06-26T08:49:57.451Z,14.30
2019-06-26T08:53:01.479Z,12.60
2019-06-26T08:56:05.386Z,13.30
2019-06-26T08:59:09.114Z,12.40
2019-06-26T09:02:12.831Z,12.90
2019-06-26T09:05:16.589Z,11.70
2019-06-26T09:08:20.363Z,12.70
2019-06-26T09:11:24.084Z,12.00
2019-06-26T09:14:27.793Z,11.60
2019-06-26T09:17:31.482Z,11.30
2019-06-26T09:20:38.757Z,10.90
2019-06-26T09:23:42.486Z,10.70
2019-06-26T09:26:46.156Z,10.80
2019-06-26T09:29:49.905Z,10.30
2019-06-26T09:32:53.901Z,10.60
2019-06-26T09:35:57.636Z,10.00
2019-06-26T09:39:01.346Z,9.40
2019-06-26T09:42:05.119Z,10.00
2019-06-26T09:45:08.918Z,9.30
2019-06-26T09:48:12.727Z,8.80
2019-06-26T09:51:16.424Z,10.10
2019-06-26T09:54:20.133Z,10.30
2019-06-26T09:57:23.821Z,11.50
2019-06-26T10:00:27.798Z,10.00
2019-06-26T10:03:31.803Z,9.90
2019-06-26T10:06:35.466Z,9.90
2019-06-26T10:09:39.144Z,9.00
2019-06-26T10:12:42.824Z,9.00
2019-06-26T10:15:46.578Z,8.40
2019-06-26T10:18:50.281Z,8.10
2019-06-26T10:21:53.933Z,9.20
2019-06-26T10:24:57.935Z,8.30
2019-06-26T10:28:01.819Z,8.70
2019-06-26T10:31:05.990Z,9.60
2019-06-26T10:34:10.253Z,8.90
2019-06-26T10:37:14.217Z,10.30
2019-06-26T10:40:18.108Z,9.50
2019-06-26T10:43:21.816Z,9.40
2019-06-26T10:46:25.511Z,8.80
2019-06-26T10:49:29.264Z,8.80
2019-06-26T10:52:32.946Z,9.10
2019-06-26T10:55:36.616Z,8.00
2019-06-26T10:58:40.302Z,8.60
2019-06-26T11:01:44.014Z,8.70
2019-06-26T11:04:47.717Z,8.10
2019-06-26T11:07:51.442Z,8.70
2019-06-26T11:10:55.125Z,8.10
2019-06-26T11:13:58.816Z,7.20
2019-06-26T11:17:02.513Z,7.60
2019-06-26T11:20:07.228Z,6.40
2019-06-26T11:23:11.165Z,6.70
2019-06-26T11:26:14.862Z,5.40
2019-06-26T11:29:18.815Z,6.70
2019-06-26T11:32:22.558Z,5.80
2019-06-26T11:35:26.263Z,6.30
2019-06-26T11:38:29.983Z,6.60
2019-06-26T11:41:33.774Z,5.60
2019-06-26T11:44:37.466Z,6.00
2019-06-26T11:47:41.230Z,6.40
2019-06-26T11:50:44.964Z,5.80
2019-06-26T11:53:48.649Z,6.30
2019-06-26T11:56:53.372Z,6.40
2019-06-26T11:59:57.338Z,5.40
2019-06-26T12:03:01.132Z,5.60
2019-06-26T12:06:17.942Z,5.30
2019-06-26T12:09:10.639Z,5.60
2019-06-26T12:12:14.305Z,5.70
2019-06-26T12:15:20.280Z,5.60
2019-06-26T12:18:23.957Z,5.50
2019-06-26T12:21:27.730Z,5.50
2019-06-26T12:24:31.437Z,5.40
2019-06-26T12:27:35.286Z,5.40
2019-06-26T12:30:38.982Z,5.40
2019-06-26T12:33:42.896Z,5.60
2019-06-26T12:36:46.597Z,5.60
2019-06-26T12:39:50.291Z,5.50
2019-06-26T12:42:55.681Z,5.40
2019-06-26T12:45:59.653Z,5.30
2019-06-26T12:49:03.348Z,6.00
2019-06-26T12:52:07.118Z,6.60
2019-06-26T12:55:11.382Z,6.30
2019-06-26T12:58:19.632Z,6.50
2019-06-26T13:01:20.734Z,7.20
2019-06-26T13:04:24.449Z,7.10
2019-06-26T13:07:28.205Z,7.10
2019-06-26T13:10:45.019Z,6.50
2019-06-26T13:13:37.333Z,7.20
2019-06-26T13:16:41.014Z,7.40
2019-06-26T13:19:44.731Z,6.40
2019-06-26T13:22:48.405Z,6.40
2019-06-26T13:25:52.126Z,6.00
2019-06-26T13:28:55.825Z,7.50
2019-06-26T13:31:59.518Z,7.10
2019-06-26T13:35:03.414Z,6.60
2019-06-26T13:38:07.173Z,6.70
2019-06-26T13:41:10.875Z,5.50
2019-06-26T13:44:14.621Z,6.40
2019-06-26T13:47:18.392Z,6.30
2019-06-26T13:50:22.273Z,5.90
2019-06-26T13:53:25.996Z,6.30
2019-06-26T13:56:29.703Z,6.50
2019-06-26T13:59:33.605Z,6.20
2019-06-26T14:02:37.277Z,6.70
2019-06-26T14:05:41.051Z,5.90
2019-06-26T14:08:44.767Z,6.00
2019-06-26T14:11:48.558Z,6.50
2019-06-26T14:14:57.200Z,5.60
2019-06-26T14:17:57.639Z,5.60
2019-06-26T14:21:01.402Z,5.70
2019-06-26T14:24:05.748Z,5.70
2019-06-26T14:27:09.956Z,5.60
2019-06-26T14:30:14.353Z,4.30
2019-06-26T14:33:18.215Z,5.10
2019-06-26T14:36:23.489Z,4.90
2019-06-26T14:39:27.565Z,5.80
2019-06-26T14:42:31.270Z,5.80
2019-06-26T14:45:35.204Z,5.70
2019-06-26T14:48:39.291Z,5.70
2019-06-26T14:51:47.457Z,6.00
2019-06-26T14:54:48.527Z,6.40
2019-06-26T14:57:52.481Z,6.50
2019-06-26T15:00:56.389Z,7.00
2019-06-26T15:04:00.185Z,6.60
2019-06-26T15:07:04.102Z,6.40
2019-06-26T15:10:08.466Z,7.20
2019-06-26T15:13:12.199Z,7.40
2019-06-26T15:16:15.880Z,7.10
2019-06-26T15:19:19.721Z,7.30
2019-06-26T15:22:23.505Z,7.40
2019-06-26T15:25:27.273Z,7.60
2019-06-26T15:28:31.058Z,7.70
2019-06-26T15:31:34.874Z,8.60
2019-06-26T15:34:38.593Z,8.20
2019-06-26T15:37:45.101Z,8.50
2019-06-26T15:40:48.797Z,8.20
2019-06-26T15:43:52.515Z,8.10
2019-06-26T15:46:56.185Z,8.70
2019-06-26T15:49:59.927Z,8.00
2019-06-26T15:53:03.718Z,7.60
2019-06-26T15:56:07.475Z,7.40
2019-06-26T15:59:11.289Z,6.80
2019-06-26T16:02:14.978Z,7.20
2019-06-26T16:05:18.805Z,7.70
2019-06-26T16:08:22.611Z,8.20
2019-06-26T16:11:26.420Z,7.90
2019-06-26T16:14:30.198Z,7.50
2019-06-26T16:17:53.126Z,7.50
2019-06-26T16:20:57.102Z,7.70
2019-06-26T16:24:00.872Z,7.80
2019-06-26T16:27:05.746Z,7.50
2019-06-26T16:30:09.584Z,7.30
2019-06-26T16:33:13.597Z,7.40
2019-06-26T16:36:17.329Z,7.50
2019-06-26T16:39:22.657Z,7.80
2019-06-26T16:42:26.310Z,7.90
2019-06-26T16:45:30.070Z,7.90
2019-06-26T16:48:33.755Z,8.50
2019-06-26T16:51:37.561Z,8.30
2019-06-26T16:54:41.306Z,8.60
2019-06-26T16:57:45.039Z,8.50
2019-06-26T17:00:48.747Z,9.30
2019-06-26T17:03:52.436Z,9.60
2019-06-26T17:06:56.333Z,10.20
2019-06-26T17:10:00.066Z,10.30
2019-06-26T17:13:03.844Z,10.80
2019-06-26T17:16:07.844Z,11.00
2019-06-26T17:19:11.671Z,11.60
2019-06-26T17:22:15.409Z,11.50
2019-06-26T17:25:20.405Z,12.30
2019-06-26T17:28:24.137Z,11.70
2019-06-26T17:31:28.614Z,12.10
2019-06-26T17:34:32.322Z,10.90
2019-06-26T17:37:36.162Z,10.90
2019-06-26T17:40:40.752Z,10.60
2019-06-26T17:43:44.702Z,10.90
2019-06-26T17:46:48.655Z,10.60
2019-06-26T17:49:52.528Z,10.30
2019-06-26T17:52:56.438Z,10.10
2019-06-26T17:56:00.964Z,9.50
2019-06-26T17:59:05.629Z,9.00
2019-06-26T18:02:09.451Z,9.00
2019-06-26T18:05:13.290Z,9.00
2019-06-26T18:08:17.094Z,9.60
2019-06-26T18:11:20.805Z,9.10
2019-06-26T18:14:24.494Z,9.00
2019-06-26T18:17:28.308Z,9.20
2019-06-26T18:20:32.105Z,9.50
2019-06-26T18:23:38.466Z,9.70
2019-06-26T18:26:41.611Z,9.90
2019-06-26T18:29:45.325Z,10.20
2019-06-26T18:32:49.114Z,11.10
2019-06-26T18:35:52.801Z,11.10
2019-06-26T18:38:56.485Z,11.00
2019-06-26T18:42:00.334Z,11.50
2019-06-26T18:45:04.418Z,11.50
2019-06-26T18:48:08.330Z,11.90
2019-06-26T18:51:12.046Z,12.40
2019-06-26T18:54:15.738Z,12.40
2019-06-26T18:57:19.557Z,12.90
2019-06-26T19:00:23.315Z,13.00
2019-06-26T19:03:27.091Z,13.10
2019-06-26T19:06:30.829Z,13.30
2019-06-26T19:09:34.542Z,13.70
2019-06-26T19:12:38.417Z,14.00
2019-06-26T19:15:42.182Z,14.40
2019-06-26T19:18:45.905Z,14.60
2019-06-26T19:21:49.615Z,15.00
2019-06-26T19:24:53.302Z,15.60
2019-06-26T19:27:57.079Z,15.80
2019-06-26T19:31:00.879Z,16.00
2019-06-26T19:34:04.609Z,16.00
2019-06-26T19:37:08.322Z,16.30
2019-06-26T19:40:12.252Z,16.60
2019-06-26T19:43:15.987Z,16.80
2019-06-26T19:46:20.074Z,17.30
2019-06-26T19:49:24.502Z,17.80
2019-06-26T19:52:31.999Z,18.30
2019-06-26T19:55:33.913Z,18.20
2019-06-26T19:58:37.601Z,18.50
2019-06-26T20:01:41.313Z,18.90
2019-06-26T20:04:48.063Z,19.30
2019-06-26T20:07:50.910Z,19.80
2019-06-26T20:10:54.696Z,20.10
2019-06-26T20:13:58.442Z,20.40
2019-06-26T20:17:02.175Z,20.60
2019-06-26T20:20:06.318Z,20.60
2019-06-26T20:23:10.030Z,21.00
2019-06-26T20:26:13.866Z,21.10
2019-06-26T20:29:17.582Z,21.80
2019-06-26T20:32:21.357Z,21.70
2019-06-26T20:35:25.311Z,21.80
2019-06-26T20:38:29.515Z,21.80
2019-06-26T20:41:33.208Z,21.80
2019-06-26T20:44:36.966Z,22.10
2019-06-26T20:47:40.718Z,22.20
2019-06-26T20:50:44.422Z,22.20
2019-06-26T20:53:48.197Z,22.50
2019-06-26T20:56:51.963Z,22.90
2019-06-26T20:59:55.676Z,23.10
2019-06-26T21:02:59.378Z,23.10
2019-06-26T21:06:03.149Z,23.30
2019-06-26T21:09:07.071Z,23.60
2019-06-26T21:12:11.091Z,23.80
2019-06-26T21:15:16.005Z,24.00
2019-06-26T21:18:19.930Z,24.60
2019-06-26T21:21:23.694Z,24.80
2019-06-26T21:24:27.395Z,24.80
2019-06-26T21:27:32.436Z,25.80
2019-06-26T21:30:36.413Z,25.20
2019-06-26T21:33:40.377Z,25.20
2019-06-26T21:36:44.162Z,25.10
2019-06-26T21:39:47.846Z,25.10
2019-06-26T21:42:51.528Z,25.30
2019-06-26T21:45:55.487Z,25.40
2019-06-26T21:48:59.324Z,24.90
2019-06-26T21:52:03.035Z,24.60
2019-06-26T21:55:07.282Z,24.80
2019-06-26T21:58:11.063Z,24.80
2019-06-26T22:01:14.947Z,24.80
2019-06-26T22:04:18.676Z,24.70
2019-06-26T22:07:22.862Z,24.70
2019-06-26T22:10:27.733Z,24.70
2019-06-26T22:13:31.614Z,24.70
2019-06-26T22:16:35.368Z,25.10
2019-06-26T22:19:39.053Z,24.60
2019-06-26T22:22:42.717Z,24.10
2019-06-26T22:25:50.701Z,24.20
2019-06-26T22:28:51.838Z,24.40
2019-06-26T22:31:55.562Z,24.30
2019-06-26T22:34:59.368Z,24.30
2019-06-26T22:38:03.111Z,24.20
2019-06-26T22:41:06.874Z,25.30
2019-06-26T22:44:10.588Z,24.70
2019-06-26T22:47:14.357Z,24.70
2019-06-26T22:50:18.353Z,25.10
2019-06-26T22:53:22.560Z,25.20
2019-06-26T22:56:27.118Z,25.70
2019-06-26T22:59:31.609Z,25.90
2019-06-26T23:02:35.257Z,25.90
2019-06-26T23:05:38.970Z,26.40
2019-06-26T23:08:43.133Z,27.50
2019-06-26T23:11:47.043Z,27.70
2019-06-26T23:14:50.713Z,28.30
2019-06-26T23:17:54.470Z,28.90
2019-06-26T23:20:58.153Z,29.30
2019-06-26T23:24:01.822Z,29.90
2019-06-26T23:27:05.626Z,29.60
2019-06-26T23:30:16.166Z,29.80
2019-06-26T23:33:20.549Z,29.90
2019-06-26T23:36:24.274Z,30.90
2019-06-26T23:39:27.941Z,31.00
2019-06-26T23:42:31.663Z,31.30
2019-06-26T23:45:35.424Z,31.80
2019-06-26T23:48:39.116Z,32.40
2019-06-26T23:51:42.832Z,32.60
2019-06-26T23:54:46.514Z,32.70
2019-06-26T23:57:59.064Z,33.20
